Time;durP1;ratioP1;P1;durP2;ratioP2;P2;SDS_P1;SDS_P2;PMS_P1;PMS_P2;Temp;Humidity;BMP_temperature;BMP_pressure;BME280_temperature;BME280_humidity;BME280_pressure;Samples;Min_cycle;Max_cycle;Signal;HPM_P1;HPM_P2
2023/07/26 00:00:15;;;;;;;3.88;3.67;;;12.50;99.90;;;;;;4996916;28;20199;-74
2023/07/26 00:02:41;;;;;;;4.10;3.90;;;12.50;99.90;;;;;;4997176;28;20218;-74
2023/07/26 00:05:11;;;;;;;3.83;3.63;;;;;;;;;;4996899;28;20605;-74
2023/07/26 00:07:38;;;;;;;3.72;3.50;;;;;;;;;;4996549;28;20571;-74
2023/07/26 00:10:05;;;;;;;3.80;3.60;;;;;;;;;;4996823;28;20237;-74
2023/07/26 00:12:32;;;;;;;3.90;3.70;;;;;;;;;;4996644;28;20230;-74
2023/07/26 00:14:59;;;;;;;3.63;3.53;;;;;;;;;;4996779;28;20209;-74
2023/07/26 00:17:26;;;;;;;3.83;3.63;;;;;;;;;;4996415;28;20570;-74
2023/07/26 00:19:53;;;;;;;3.83;3.50;;;12.40;99.90;;;;;;4996624;28;20199;-74
2023/07/26 00:22:21;;;;;;;3.83;3.72;;;12.40;99.90;;;;;;4996577;28;20222;-74
2023/07/26 00:24:48;;;;;;;3.75;3.55;;;12.50;99.90;;;;;;4996469;28;20206;-74
2023/07/26 00:27:17;;;;;;;3.63;3.42;;;12.40;99.90;;;;;;4996558;28;20210;-74
2023/07/26 00:29:43;;;;;;;4.10;3.90;;;12.40;99.90;;;;;;4996503;28;20253;-74
2023/07/26 00:32:10;;;;;;;4.22;4.03;;;12.50;99.90;;;;;;4996244;28;20218;-74
2023/07/26 00:34:37;;;;;;;3.58;3.47;;;12.40;99.90;;;;;;4996348;28;20210;-74
2023/07/26 00:37:05;;;;;;;3.83;3.63;;;;;;;;;;4996347;28;20203;-74
2023/07/26 00:39:33;;;;;;;3.45;3.35;;;12.40;99.90;;;;;;4995979;28;20561;-74
2023/07/26 00:42:00;;;;;;;3.95;3.60;;;12.40;99.90;;;;;;4996162;28;20229;-73
2023/07/26 00:44:27;;;;;;;4.00;3.70;;;12.40;99.90;;;;;;4996100;28;20206;-72
2023/07/26 00:46:53;;;;;;;3.60;3.40;;;12.40;99.90;;;;;;4995847;28;20202;-73
2023/07/26 00:49:20;;;;;;;3.50;3.40;;;;;;;;;;4996142;28;20205;-74
2023/07/26 00:51:47;;;;;;;4.45;4.05;;;;;;;;;;4995682;28;20739;-73
2023/07/26 00:54:14;;;;;;;3.50;3.40;;;;;;;;;;4995634;28;20609;-74
2023/07/26 00:56:43;;;;;;;4.22;3.90;;;;;;;;;;4995640;28;20673;-74
2023/07/26 00:59:10;;;;;;;3.90;3.70;;;;;;;;;;4995605;28;20206;-74
2023/07/26 01:01:37;;;;;;;3.72;3.53;;;12.20;99.90;;;;;;4995412;28;20222;-74
2023/07/26 01:04:04;;;;;;;3.70;3.50;;;12.30;99.90;;;;;;4995502;28;20603;-74
2023/07/26 01:06:39;;;;;;;3.85;3.65;;;12.30;99.90;;;;;;4995342;28;20696;-74
2023/07/26 01:09:12;;;;;;;3.60;3.40;;;12.30;99.90;;;;;;4995730;28;20191;-74
2023/07/26 01:11:43;;;;;;;3.90;3.60;;;12.30;99.90;;;;;;4995616;28;20225;-74
2023/07/26 01:14:17;;;;;;;3.88;3.67;;;12.20;99.90;;;;;;4995614;28;20218;-73
2023/07/26 01:16:45;;;;;;;3.47;3.28;;;12.20;99.90;;;;;;4995655;28;20234;-73
2023/07/26 01:19:12;;;;;;;3.30;3.20;;;12.10;99.90;;;;;;4995590;28;20206;-75
2023/07/26 01:21:40;;;;;;;3.65;3.45;;;;;;;;;;4995483;28;20250;-73
2023/07/26 01:24:07;;;;;;;3.47;3.38;;;;;;;;;;4995120;28;20561;-73
2023/07/26 01:26:34;;;;;;;3.70;3.60;;;;;;;;;;4995527;28;20202;-73
2023/07/26 01:29:01;;;;;;;3.35;3.15;;;;;;;;;;4999618;28;20558;-73
2023/07/26 01:31:29;;;;;;;4.05;3.85;;;;;;;;;;4999448;28;20223;-73
2023/07/26 01:33:56;;;;;;;3.47;3.33;;;;;;;;;;4999463;28;20223;-73
2023/07/26 01:36:24;;;;;;;3.92;3.63;;;;;;;;;;4995228;28;20202;-73
2023/07/26 01:38:52;;;;;;;4.13;3.70;;;;;;;;;;4995160;28;20205;-73
2023/07/26 01:41:20;;;;;;;3.97;3.60;;;11.90;99.90;;;;;;4995049;28;20218;-74
2023/07/26 01:43:47;;;;;;;3.42;3.22;;;12.00;99.90;;;;;;4994696;28;20574;-74
2023/07/26 01:46:14;;;;;;;4.20;3.80;;;12.00;99.90;;;;;;4995050;28;20207;-74
2023/07/26 01:48:41;;;;;;;3.90;3.60;;;12.00;99.90;;;;;;4994949;28;20202;-74
2023/07/26 01:51:08;;;;;;;3.22;3.03;;;12.00;99.90;;;;;;4994679;28;20237;-74
2023/07/26 01:53:35;;;;;;;4.03;3.72;;;12.00;99.90;;;;;;4994875;28;20235;-74
2023/07/26 01:56:04;;;;;;;2.90;2.80;;;12.00;99.90;;;;;;4994376;28;20207;-74
2023/07/26 01:58:31;;;;;;;3.08;2.90;;;12.00;99.90;;;;;;4994524;28;20206;-74
2023/07/26 02:00:57;;;;;;;3.72;3.42;;;12.00;99.90;;;;;;4994705;28;20222;-74
2023/07/26 02:03:24;;;;;;;2.95;2.78;;;12.00;99.90;;;;;;4994922;28;20198;-74
2023/07/26 02:05:51;;;;;;;3.25;3.10;;;12.00;99.90;;;;;;4994713;28;20250;-74
2023/07/26 02:08:18;;;;;;;3.17;3.08;;;11.90;99.90;;;;;;4994855;28;20213;-73
2023/07/26 02:10:44;;;;;;;3.00;2.90;;;11.90;99.90;;;;;;4994539;28;20218;-73
2023/07/26 02:13:13;;;;;;;3.10;3.00;;;11.90;99.90;;;;;;4994522;28;20214;-74
2023/07/26 02:15:39;;;;;;;3.00;2.90;;;11.90;99.90;;;;;;4994550;28;20692;-74
2023/07/26 02:18:06;;;;;;;2.97;2.88;;;11.90;99.90;;;;;;4994185;28;20198;-74
2023/07/26 02:20:35;;;;;;;2.58;2.47;;;;;;;;;;4994551;28;20211;-75
2023/07/26 02:23:03;;;;;;;2.72;2.63;;;11.80;99.90;;;;;;4994596;28;20215;-77
2023/07/26 02:25:29;;;;;;;2.55;2.50;;;11.90;99.90;;;;;;4994403;28;20305;-77
2023/07/26 02:27:56;;;;;;;2.00;2.00;;;11.90;99.90;;;;;;4994536;28;20199;-77
2023/07/26 02:30:24;;;;;;;2.00;2.00;;;12.00;99.90;;;;;;4994326;28;20207;-77
2023/07/26 02:32:51;;;;;;;1.92;1.92;;;12.00;99.90;;;;;;4993940;28;20689;-77
2023/07/26 02:35:18;;;;;;;2.35;2.15;;;12.00;99.90;;;;;;4994244;28;20227;-77
2023/07/26 02:37:45;;;;;;;2.20;2.17;;;12.00;99.90;;;;;;4994362;28;20241;-77
2023/07/26 02:40:12;;;;;;;2.05;2.05;;;11.90;99.90;;;;;;4994313;28;20210;-77
2023/07/26 02:42:39;;;;;;;2.38;2.28;;;11.90;99.90;;;;;;4994488;28;20226;-77
2023/07/26 02:45:06;;;;;;;1.58;1.58;;;;;;;;;;4993935;28;20670;-77
2023/07/26 02:47:35;;;;;;;1.80;1.80;;;11.70;99.90;;;;;;4994197;28;20206;-75
2023/07/26 02:50:04;;;;;;;1.60;1.60;;;;;;;;;;4994093;28;20211;-74
2023/07/26 02:52:31;;;;;;;2.00;1.90;;;11.60;99.90;;;;;;4993794;28;20234;-74
2023/07/26 02:54:59;;;;;;;1.88;1.77;;;;;;;;;;4994063;28;20288;-75
2023/07/26 02:57:26;;;;;;;1.77;1.77;;;;;;;;;;4994045;28;20551;-74
2023/07/26 02:59:53;;;;;;;1.85;1.85;;;;;;;;;;4994053;28;20203;-74
2023/07/26 03:02:20;;;;;;;1.85;1.75;;;;;;;;;;4993977;28;20227;-75
2023/07/26 03:04:50;;;;;;;1.90;1.90;;;;;;;;;;4994043;28;20206;-75
2023/07/26 03:07:17;;;;;;;1.75;1.75;;;11.40;99.90;;;;;;4995696;28;20187;-74
2023/07/26 03:09:44;;;;;;;1.70;1.70;;;11.50;99.90;;;;;;4997909;28;20720;-74
2023/07/26 03:12:10;;;;;;;1.80;1.70;;;11.50;99.90;;;;;;4998000;28;20230;-74
2023/07/26 03:14:40;;;;;;;1.92;1.92;;;11.50;99.90;;;;;;4997758;28;20222;-74
2023/07/26 03:17:08;;;;;;;1.80;1.80;;;11.50;99.90;;;;;;4997753;28;20210;-75
2023/07/26 03:19:34;;;;;;;1.70;1.70;;;11.60;99.90;;;;;;4997765;28;20230;-75
2023/07/26 03:22:03;;;;;;;1.65;1.65;;;11.60;99.90;;;;;;4997404;28;20227;-75
2023/07/26 03:24:29;;;;;;;1.52;1.52;;;11.60;99.90;;;;;;4997346;28;20725;-76
2023/07/26 03:26:56;;;;;;;2.00;1.90;;;11.50;99.90;;;;;;4998788;28;20543;-76
2023/07/26 03:29:25;;;;;;;1.70;1.70;;;;;;;;;;4998192;28;20214;-76
2023/07/26 03:31:52;;;;;;;1.75;1.75;;;;;;;;;;4997870;28;20223;-75
2023/07/26 03:34:19;;;;;;;1.88;1.88;;;11.80;99.90;;;;;;4997742;28;20230;-76
2023/07/26 03:36:46;;;;;;;1.60;1.60;;;11.90;99.90;;;;;;4998045;28;20209;-76
2023/07/26 03:39:14;;;;;;;1.33;1.33;;;11.80;99.90;;;;;;4998035;28;20210;-76
2023/07/26 03:41:41;;;;;;;1.70;1.70;;;11.80;99.90;;;;;;4998300;28;20712;-76
2023/07/26 03:44:07;;;;;;;1.40;1.40;;;11.80;99.90;;;;;;4997597;28;20207;-75
2023/07/26 03:46:34;;;;;;;1.80;1.70;;;11.80;99.90;;;;;;4997573;28;20207;-75
2023/07/26 03:49:01;;;;;;;1.60;1.60;;;11.80;99.90;;;;;;4997488;28;20210;-75
2023/07/26 03:51:27;;;;;;;1.52;1.52;;;11.80;99.90;;;;;;4997260;28;20234;-76
2023/07/26 03:53:54;;;;;;;1.40;1.40;;;11.80;99.90;;;;;;4996920;28;20705;-75
2023/07/26 03:56:22;;;;;;;1.52;1.52;;;11.80;99.90;;;;;;4998916;28;20210;-76
2023/07/26 03:58:49;;;;;;;1.33;1.33;;;11.90;99.90;;;;;;4997246;28;20202;-75
2023/07/26 04:01:15;;;;;;;1.52;1.52;;;11.80;99.90;;;;;;4997351;28;20230;-74
2023/07/26 04:03:42;;;;;;;1.80;1.80;;;11.80;99.90;;;;;;4997292;28;20211;-74
2023/07/26 04:06:12;;;;;;;1.67;1.58;;;11.80;99.90;;;;;;4997138;28;20203;-74
2023/07/26 04:08:39;;;;;;;1.27;1.27;;;11.90;99.90;;;;;;4996867;28;20230;-74
2023/07/26 04:11:05;;;;;;;1.70;1.70;;;11.90;99.90;;;;;;4996442;28;20582;-74
2023/07/26 04:13:33;;;;;;;1.58;1.58;;;11.90;99.90;;;;;;4996789;28;20206;-74
2023/07/26 04:16:00;;;;;;;1.48;1.48;;;11.90;99.90;;;;;;4996716;28;20206;-74
2023/07/26 04:18:27;;;;;;;1.52;1.52;;;11.90;99.90;;;;;;4996239;28;20256;-74
2023/07/26 04:20:54;;;;;;;1.30;1.30;;;12.00;99.90;;;;;;4996492;28;20226;-74
2023/07/26 04:23:21;;;;;;;1.48;1.48;;;12.00;99.90;;;;;;4996826;28;20210;-71
2023/07/26 04:25:50;;;;;;;1.50;1.40;;;12.10;99.90;;;;;;4996869;28;20202;-71
2023/07/26 04:28:17;;;;;;;1.52;1.52;;;12.10;99.90;;;;;;4996507;28;20210;-71
2023/07/26 04:30:47;;;;;;;1.38;1.38;;;12.10;99.90;;;;;;4996398;28;20229;-71
2023/07/26 04:33:13;;;;;;;1.50;1.50;;;12.10;99.90;;;;;;4996406;28;20285;-72
2023/07/26 04:35:40;;;;;;;1.75;1.75;;;12.10;99.90;;;;;;4996553;28;20222;-72
2023/07/26 04:38:07;;;;;;;1.40;1.40;;;12.20;99.90;;;;;;4996329;28;20210;-72
2023/07/26 04:40:37;;;;;;;1.55;1.55;;;12.20;99.90;;;;;;4996240;28;20277;-72
2023/07/26 04:43:04;;;;;;;1.33;1.33;;;12.20;99.90;;;;;;4996295;28;20605;-73
2023/07/26 04:45:31;;;;;;;1.65;1.65;;;12.20;99.90;;;;;;4996271;28;20249;-73
2023/07/26 04:47:59;;;;;;;1.42;1.42;;;;;;;;;;4996193;28;20210;-73
2023/07/26 04:50:26;;;;;;;1.40;1.40;;;12.20;99.90;;;;;;4996133;28;20211;-72
2023/07/26 04:52:53;;;;;;;1.30;1.30;;;;;;;;;;4996030;28;20203;-73
2023/07/26 04:55:20;;;;;;;1.40;1.40;;;;;;;;;;4996030;28;20222;-72
2023/07/26 04:57:47;;;;;;;1.58;1.58;;;;;;;;;;4996025;28;20206;-73
2023/07/26 05:00:14;;;;;;;1.27;1.27;;;;;;;;;;4995594;28;20199;-72
2023/07/26 05:02:41;;;;;;;1.42;1.42;;;;;;;;;;4995720;28;20233;-71
2023/07/26 05:05:10;;;;;;;1.48;1.48;;;;;;;;;;4995682;28;20594;-71
2023/07/26 05:07:37;;;;;;;1.67;1.67;;;;;;;;;;4995691;28;20210;-71
2023/07/26 05:10:05;;;;;;;1.40;1.40;;;12.30;99.90;;;;;;4995408;28;20209;-73
2023/07/26 05:12:31;;;;;;;1.50;1.40;;;12.30;99.90;;;;;;4995586;28;20249;-73
2023/07/26 05:14:58;;;;;;;1.70;1.70;;;12.40;99.90;;;;;;4995615;28;20210;-73
2023/07/26 05:17:27;;;;;;;1.35;1.35;;;;;;;;;;4995655;28;20202;-74
2023/07/26 05:19:54;;;;;;;1.30;1.30;;;;;;;;;;4995494;28;20203;-73
2023/07/26 05:22:23;;;;;;;1.40;1.40;;;;;;;;;;4995197;28;20251;-73
2023/07/26 05:24:52;;;;;;;1.38;1.38;;;;;;;;;;4995425;28;20202;-73
2023/07/26 05:27:19;;;;;;;1.50;1.50;;;;;;;;;;4995425;28;20202;-73
2023/07/26 05:29:48;;;;;;;1.40;1.40;;;;;;;;;;4994786;28;20287;-73
2023/07/26 05:32:18;;;;;;;1.35;1.35;;;;;;;;;;4995339;28;20230;-73
2023/07/26 05:34:45;;;;;;;1.40;1.40;;;;;;;;;;4995019;28;20227;-73
2023/07/26 05:37:12;;;;;;;1.50;1.50;;;;;;;;;;4995547;28;20227;-73
2023/07/26 05:39:41;;;;;;;1.45;1.45;;;;;;;;;;4995288;28;20203;-73
2023/07/26 05:42:08;;;;;;;1.50;1.50;;;;;;;;;;4995253;28;20223;-73
2023/07/26 05:44:35;;;;;;;1.27;1.27;;;;;;;;;;4995064;28;20199;-73
2023/07/26 05:47:02;;;;;;;1.55;1.55;;;;;;;;;;4995024;28;20218;-73
2023/07/26 05:49:29;;;;;;;1.48;1.48;;;;;;;;;;4994745;28;20709;-73
2023/07/26 05:51:56;;;;;;;1.30;1.30;;;;;;;;;;4994672;28;20226;-73
2023/07/26 05:54:23;;;;;;;1.30;1.30;;;;;;;;;;5018082;23;20249;-75
2023/07/26 05:56:51;;;;;;;1.80;1.80;;;;;;;;;;4994675;28;20673;-75
2023/07/26 05:59:18;;;;;;;1.55;1.55;;;;;;;;;;4994962;28;20206;-76
2023/07/26 06:01:46;;;;;;;1.77;1.75;;;;;;;;;;4994680;28;20652;-75
2023/07/26 06:04:13;;;;;;;1.30;1.30;;;;;;;;;;4994727;28;20588;-75
2023/07/26 06:06:40;;;;;;;1.40;1.40;;;;;;;;;;4995008;28;20206;-75
2023/07/26 06:09:07;;;;;;;1.40;1.40;;;;;;;;;;4994754;28;20729;-75
2023/07/26 06:11:35;;;;;;;1.45;1.42;;;;;;;;;;4995009;28;20218;-75
2023/07/26 06:14:03;;;;;;;1.10;1.10;;;;;;;;;;4995583;28;20260;-75
2023/07/26 06:16:30;;;;;;;1.27;1.27;;;;;;;;;;4995637;28;20218;-75
2023/07/26 06:18:58;;;;;;;1.33;1.33;;;;;;;;;;4995222;28;20202;-76
2023/07/26 06:21:25;;;;;;;1.42;1.42;;;;;;;;;;4995197;28;20214;-76
2023/07/26 06:23:52;;;;;;;1.40;1.40;;;;;;;;;;4995355;28;20253;-75
2023/07/26 06:26:20;;;;;;;1.23;1.23;;;;;;;;;;4995217;28;20642;-75
2023/07/26 06:28:48;;;;;;;0.98;0.98;;;;;;;;;;4995494;28;20202;-75
2023/07/26 06:31:16;;;;;;;0.80;0.80;;;;;;;;;;4995605;28;20613;-75
2023/07/26 06:33:43;;;;;;;1.05;0.95;;;;;;;;;;4995392;28;20293;-75
2023/07/26 06:36:10;;;;;;;0.75;0.75;;;;;;;;;;4995428;28;20222;-75
2023/07/26 06:38:38;;;;;;;0.85;0.77;;;;;;;;;;4995214;28;20206;-75
2023/07/26 06:41:05;;;;;;;0.65;0.65;;;;;;;;;;4994773;28;20202;-76
2023/07/26 06:43:32;;;;;;;0.85;0.85;;;;;;;;;;4995349;28;20588;-74
2023/07/26 06:45:59;;;;;;;0.77;0.77;;;;;;;;;;4995225;28;20234;-74
2023/07/26 06:48:28;;;;;;;0.73;0.73;;;;;;;;;;4995261;28;20228;-76
2023/07/26 06:50:55;;;;;;;0.80;0.80;;;;;;;;;;4995047;28;20230;-75
2023/07/26 06:53:22;;;;;;;0.70;0.70;;;;;;;;;;4995250;28;20636;-74
2023/07/26 06:55:50;;;;;;;0.90;0.90;;;;;;;;;;4995344;28;20250;-75
2023/07/26 06:58:17;;;;;;;0.80;0.80;;;;;;;;;;4995514;28;20206;-75
2023/07/26 07:00:44;;;;;;;0.80;0.80;;;;;;;;;;4995647;28;20658;-75
2023/07/26 07:03:11;;;;;;;1.00;0.80;;;;;;;;;;4994679;28;20206;-74
2023/07/26 07:05:40;;;;;;;0.93;0.88;;;;;;;;;;4994324;28;20225;-75
2023/07/26 07:08:07;;;;;;;0.93;0.80;;;;;;;;;;4994100;28;20191;-75
2023/07/26 07:10:34;;;;;;;1.10;1.00;;;;;;;;;;4994058;28;20598;-75
2023/07/26 07:13:01;;;;;;;0.95;0.95;;;;;;;;;;4994007;28;20665;-75
2023/07/26 07:15:28;;;;;;;1.95;0.90;;;;;;;;;;4993644;28;20805;-75
2023/07/26 07:17:55;;;;;;;1.02;1.02;;;;;;;;;;4994012;28;20210;-75
2023/07/26 07:20:22;;;;;;;0.85;0.85;;;;;;;;;;4994008;28;20203;-75
2023/07/26 07:22:53;;;;;;;0.85;0.85;;;;;;;;;;4993979;28;20211;-75
2023/07/26 07:25:20;;;;;;;0.98;0.98;;;;;;;;;;4993767;28;20721;-75
2023/07/26 07:27:47;;;;;;;0.77;0.77;;;;;;;;;;4993916;28;20225;-75
2023/07/26 07:30:14;;;;;;;0.90;0.90;;;;;;;;;;4993824;28;20581;-75
2023/07/26 07:32:41;;;;;;;1.20;1.20;;;;;;;;;;4993879;28;20206;-75
2023/07/26 07:35:09;;;;;;;1.17;1.17;;;;;;;;;;4993911;28;20233;-75
2023/07/26 07:37:36;;;;;;;1.23;1.15;;;;;;;;;;4993481;28;20666;-75
2023/07/26 07:40:07;;;;;;;3.55;1.42;;;;;;;;;;4993764;28;20210;-76
2023/07/26 07:42:35;;;;;;;1.10;1.10;;;;;;;;;;4993779;28;20195;-76
2023/07/26 07:45:02;;;;;;;0.90;0.90;;;;;;;;;;4993683;28;20714;-75
2023/07/26 07:47:29;;;;;;;0.82;0.82;;;;;;;;;;4993329;28;20570;-75
2023/07/26 07:49:56;;;;;;;1.08;1.08;;;;;;;;;;4993404;28;20561;-75
2023/07/26 07:52:23;;;;;;;1.00;1.00;;;;;;;;;;4993483;28;20662;-75
2023/07/26 07:54:50;;;;;;;1.20;1.20;;;;;;;;;;4996257;28;20227;-76
2023/07/26 07:57:21;;;;;;;0.95;0.95;;;;;;;;;;4997228;28;20202;-76
2023/07/26 07:59:48;;;;;;;1.20;1.20;;;;;;;;;;4997194;28;20191;-75
2023/07/26 08:02:15;;;;;;;0.95;0.95;;;;;;;;;;4997166;28;20258;-75
2023/07/26 08:04:42;;;;;;;1.00;1.00;;;;;;;;;;4996651;28;20721;-75
2023/07/26 08:07:09;;;;;;;1.08;1.02;;;;;;;;;;4997015;28;20203;-75
2023/07/26 08:09:36;;;;;;;0.90;0.90;;;;;;;;;;4996814;28;20217;-75
2023/07/26 08:12:03;;;;;;;0.98;0.98;;;;;;;;;;4996929;28;20210;-76
2023/07/26 08:14:32;;;;;;;1.08;1.08;;;;;;;;;;4996905;28;20273;-76
2023/07/26 08:16:59;;;;;;;1.15;1.15;;;;;;;;;;4997035;28;20222;-77
2023/07/26 08:19:26;;;;;;;0.95;0.95;;;;;;;;;;4997401;28;20210;-76
2023/07/26 08:21:54;;;;;;;0.85;0.85;;;;;;;;;;4996760;28;20696;-76
2023/07/26 08:24:21;;;;;;;0.98;0.98;;;;;;;;;;4996417;28;20777;-76
2023/07/26 08:26:48;;;;;;;0.90;0.90;;;;;;;;;;4996568;28;20593;-76
2023/07/26 08:29:15;;;;;;;0.90;0.90;;;;;;;;;;4996653;28;20229;-76
2023/07/26 08:31:44;;;;;;;1.00;1.00;;;;;;;;;;4996172;28;20233;-76
2023/07/26 08:34:12;;;;;;;0.90;0.90;;;;;;;;;;4996127;28;20219;-75
2023/07/26 08:36:39;;;;;;;0.88;0.88;;;;;;;;;;4996552;28;20577;-75
2023/07/26 08:39:07;;;;;;;1.00;1.00;;;;;;;;;;4996620;28;20199;-76
2023/07/26 08:41:36;;;;;;;0.80;0.80;;;;;;;;;;4996209;28;20206;-76
2023/07/26 08:44:05;;;;;;;0.80;0.80;;;;;;;;;;4996073;28;20250;-76
2023/07/26 08:46:33;;;;;;;1.05;1.05;;;;;;;;;;4996069;28;20666;-76
2023/07/26 08:49:01;;;;;;;1.17;1.17;;;;;;;;;;4996376;28;20187;-75
2023/07/26 08:51:30;;;;;;;1.00;1.00;;;;;;;;;;4995863;28;20662;-75
2023/07/26 08:53:58;;;;;;;1.27;1.10;;;;;;;;;;4995798;28;20235;-75
2023/07/26 08:56:26;;;;;;;1.02;1.02;;;;;;;;;;4995988;28;20218;-75
2023/07/26 08:58:53;;;;;;;1.00;1.00;;;;;;;;;;4995996;28;20198;-75
2023/07/26 09:01:21;;;;;;;0.98;0.90;;;;;;;;;;4996096;28;20210;-76
2023/07/26 09:03:48;;;;;;;1.20;1.20;;;;;;;;;;4995874;28;20229;-74
2023/07/26 09:06:17;;;;;;;0.70;0.70;;;;;;;;;;4996065;28;20199;-75
2023/07/26 09:08:44;;;;;;;1.20;1.10;;;;;;;;;;4996666;28;20217;-74
2023/07/26 09:11:23;;;;;;;1.33;0.82;;;;;;;;;;4996515;28;20257;-76
2023/07/26 09:13:56;;;;;;;0.95;0.80;;;;;;;;;;4995834;28;20226;-77
2023/07/26 09:16:23;;;;;;;0.80;0.77;;;;;;;;;;4995676;28;20210;-76
2023/07/26 09:18:57;;;;;;;0.82;0.82;;;;;;;;;;4995875;28;20213;-74
2023/07/26 09:21:27;;;;;;;0.60;0.60;;;;;;;;;;4995715;28;20213;-76
2023/07/26 09:23:54;;;;;;;0.43;0.43;;;;;;;;;;4995168;28;20615;-75
2023/07/26 09:26:31;;;;;;;0.50;0.50;;;;;;;;;;4995250;28;20202;-75
2023/07/26 09:28:59;;;;;;;0.50;0.50;;;;;;;;;;4995805;28;20183;-76
2023/07/26 09:31:32;;;;;;;1.05;0.80;;;;;;;;;;4995390;28;20605;-74
2023/07/26 09:33:59;;;;;;;0.43;0.43;;;;;;;;;;4995374;28;20222;-74
2023/07/26 09:36:40;;;;;;;0.60;0.60;;;;;;;;;;4995306;28;20229;-74
2023/07/26 09:39:07;;;;;;;0.50;0.50;;;;;;;;;;4995661;28;20190;-74
2023/07/26 09:41:34;;;;;;;0.70;0.70;;;;;;;;;;4995159;28;20212;-74
2023/07/26 09:44:01;;;;;;;0.65;0.65;;;;;;;;;;4995480;28;20249;-74
2023/07/26 09:46:28;;;;;;;1.00;0.70;;;;;;;;;;4995488;28;20569;-75
2023/07/26 09:48:59;;;;;;;0.70;0.70;;;;;;;;;;4994773;28;20668;-74
2023/07/26 09:51:29;;;;;;;0.75;0.73;;;;;;;;;;4994917;28;20203;-74
2023/07/26 09:53:56;;;;;;;0.60;0.60;;;;;;;;;;4995093;28;20230;-75
2023/07/26 09:56:24;;;;;;;1.00;1.00;;;;;;;;;;4995387;28;20273;-76
2023/07/26 09:58:52;;;;;;;1.02;1.00;;;;;;;;;;4994993;28;20209;-76
2023/07/26 10:01:19;;;;;;;0.88;0.88;;;;;;;;;;4995091;28;20210;-76
2023/07/26 10:03:47;;;;;;;0.60;0.60;;;;;;;;;;4994468;28;20218;-75
2023/07/26 10:06:15;;;;;;;0.60;0.60;;;;;;;;;;4994573;28;20685;-75
2023/07/26 10:08:45;;;;;;;2.08;0.60;;;;;;;;;;4994841;28;20551;-75
2023/07/26 10:11:13;;;;;;;0.77;0.77;;;;;;;;;;4994732;28;20206;-76
2023/07/26 10:13:41;;;;;;;0.40;0.40;;;;;;;;;;4994760;28;20230;-75
2023/07/26 10:16:10;;;;;;;0.68;0.60;;;;;;;;;;4994215;28;20223;-75
2023/07/26 10:18:40;;;;;;;0.65;0.65;;;;;;;;;;4993294;28;20206;-74
2023/07/26 10:21:09;;;;;;;0.60;0.60;;;;;;;;;;4994610;28;20189;-76
2023/07/26 10:23:39;;;;;;;0.50;0.50;;;;;;;;;;4994029;28;20268;-74
2023/07/26 10:26:09;;;;;;;0.50;0.50;;;;;;;;;;4994341;28;20293;-75
2023/07/26 10:28:38;;;;;;;0.70;0.70;;;;;;;;;;4993953;28;20206;-75
2023/07/26 10:31:11;;;;;;;0.80;0.70;;;;;;;;;;4994818;28;20234;-75
2023/07/26 10:33:45;;;;;;;0.52;0.52;;;;;;;;;;4993761;28;20309;-76
2023/07/26 10:36:13;;;;;;;1.48;0.70;;;;;;;;;;4994687;28;20297;-77
2023/07/26 10:38:41;;;;;;;0.70;0.70;;;;;;;;;;4994678;28;20202;-76
2023/07/26 10:41:26;;;;;;;0.80;0.80;;;;;;;;;;4994388;28;20627;-75
2023/07/26 10:44:03;;;;;;;0.77;0.77;;;;;;;;;;4994248;28;20702;-76
2023/07/26 10:46:31;;;;;;;0.63;0.63;;;;;;;;;;4994379;28;20632;-76
2023/07/26 10:48:58;;;;;;;0.80;0.80;;;;;;;;;;4994492;28;20206;-76
2023/07/26 10:51:26;;;;;;;0.80;0.80;;;;;;;;;;4995208;28;20209;-76
2023/07/26 10:53:54;;;;;;;0.65;0.65;;;;;;;;;;4997608;28;20241;-76
2023/07/26 10:56:23;;;;;;;0.70;0.70;;;;;;;;;;4997219;28;20292;-76
2023/07/26 10:58:58;;;;;;;1.10;1.10;;;;;;;;;;4995066;28;20202;-76
2023/07/26 11:01:33;;;;;;;1.40;1.30;;;;;;;;;;4994361;28;20263;-76
2023/07/26 11:04:00;;;;;;;1.30;1.20;;;;;;;;;;4994186;28;20285;-77
2023/07/26 11:06:46;;;;;;;1.95;1.20;;;;;;;;;;4993944;28;20249;-77
2023/07/26 11:09:19;;;;;;;1.02;1.02;;;;;;;;;;4994007;28;20206;-75
2023/07/26 11:11:56;;;;;;;1.38;1.30;;;;;;;;;;4993695;28;20662;-75
2023/07/26 11:14:25;;;;;;;1.67;1.35;;;;;;;;;;4993846;28;20329;-75
2023/07/26 11:16:53;;;;;;;1.55;1.45;;;;;;;;;;4993880;28;20219;-76
2023/07/26 11:19:20;;;;;;;1.23;1.23;;;;;;;;;;4993587;28;20289;-76
2023/07/26 11:21:48;;;;;;;1.30;1.20;;;;;;;;;;4993886;28;20234;-76
2023/07/26 11:24:15;;;;;;;1.35;1.20;;;;;;;;;;4993894;28;20333;-75
2023/07/26 11:26:43;;;;;;;1.38;1.30;;;;;;;;;;4993845;28;20202;-75
2023/07/26 11:29:10;;;;;;;1.73;1.70;;;;;;;;;;4996565;28;20321;-75
2023/07/26 11:31:40;;;;;;;1.67;1.58;;;;;;;;;;4998871;28;20213;-73
2023/07/26 11:34:16;;;;;;;1.40;1.40;;;;;;;;;;4998985;28;20280;-74
2023/07/26 11:36:43;;;;;;;1.58;1.48;;;;;;;;;;4997480;28;20226;-75
2023/07/26 11:39:20;;;;;;;1.60;1.50;;;;;;;;;;4997497;28;20205;-76
2023/07/26 11:41:48;;;;;;;1.80;1.70;;;;;;;;;;4997827;28;20206;-76
2023/07/26 11:44:15;;;;;;;1.33;1.33;;;;;;;;;;4997130;28;20710;-75
2023/07/26 11:46:44;;;;;;;1.17;1.17;;;;;;;;;;4997534;28;20203;-76
2023/07/26 11:49:13;;;;;;;1.00;1.00;;;;;;;;;;4997554;28;20207;-75
2023/07/26 11:51:40;;;;;;;1.25;1.25;;;;;;;;;;4997373;28;20238;-75
2023/07/26 11:54:11;;;;;;;0.95;0.95;;;;;;;;;;4996741;28;20234;-75
2023/07/26 11:56:38;;;;;;;1.08;1.08;;;;;;;;;;5020236;23;20186;-73
2023/07/26 11:59:05;;;;;;;2.10;1.35;;;;;;;;;;4997503;28;20183;-73
2023/07/26 12:01:36;;;;;;;1.40;1.40;;;;;;;;;;4997370;28;20203;-75
2023/07/26 12:04:09;;;;;;;1.38;1.27;;;;;;;;;;4997590;28;20187;-75
2023/07/26 12:06:36;;;;;;;1.30;1.30;;;;;;;;;;4997430;28;20215;-76
2023/07/26 12:09:09;;;;;;;1.33;1.33;;;;;;;;;;4997448;28;20203;-74
2023/07/26 12:11:36;;;;;;;1.23;1.23;;;;;;;;;;4997525;28;20210;-75
2023/07/26 12:14:03;;;;;;;1.58;1.50;;;;;;;;;;4997344;28;20241;-75
2023/07/26 12:16:31;;;;;;;1.55;1.45;;;;;;;;;;4997640;28;20222;-74
2023/07/26 12:19:00;;;;;;;1.33;1.33;;;;;;;;;;4997082;28;20234;-75
2023/07/26 12:21:29;;;;;;;1.58;1.50;;;;;;;;;;4997148;28;20198;-72
2023/07/26 12:23:57;;;;;;;1.23;1.23;;;;;;;;;;4997284;28;20210;-73
2023/07/26 12:26:25;;;;;;;1.52;1.52;;;;;;;;;;4997030;28;20217;-73
2023/07/26 12:28:53;;;;;;;1.52;1.50;;;;;;;;;;4997115;28;20209;-73
2023/07/26 12:31:20;;;;;;;1.40;1.40;;;;;;;;;;4996732;28;20550;-72
2023/07/26 12:33:55;;;;;;;1.55;1.48;;;;;;;;;;4997095;28;20203;-73
2023/07/26 12:36:22;;;;;;;1.20;1.20;;;;;;;;;;4996476;28;20630;-72
2023/07/26 12:38:50;;;;;;;2.08;1.30;;;;;;;;;;4996653;28;20569;-73
2023/07/26 12:41:17;;;;;;;1.38;1.38;;;;;;;;;;4996321;28;20574;-73
2023/07/26 12:43:45;;;;;;;1.08;1.08;;;;;;;;;;4996580;28;20206;-73
2023/07/26 12:46:13;;;;;;;2.42;1.10;;;;;;;;;;4996874;28;20203;-73
2023/07/26 12:48:40;;;;;;;1.00;1.00;;;;;;;;;;4996450;28;20218;-73
2023/07/26 12:51:07;;;;;;;1.00;1.00;;;;;;;;;;4996199;28;20569;-73
2023/07/26 12:53:34;;;;;;;3.00;1.42;;;;;;;;;;4996126;28;20203;-74
2023/07/26 12:56:02;;;;;;;1.88;1.20;;;;;;;;;;4996456;28;20213;-73
2023/07/26 12:58:29;;;;;;;1.63;1.52;;;;;;;;;;4996051;28;20241;-73
2023/07/26 13:00:56;;;;;;;1.17;1.17;;;;;;;;;;4996571;28;20206;-73
2023/07/26 13:03:24;;;;;;;1.33;1.33;;;;;;;;;;4996386;28;20210;-73
2023/07/26 13:05:51;;;;;;;1.05;1.05;;;;;;;;;;4996503;28;20202;-73
2023/07/26 13:08:18;;;;;;;1.48;1.10;;;;;;;;;;4996578;28;20226;-73
2023/07/26 13:10:45;;;;;;;1.05;1.05;;;;;;;;;;4997087;28;20210;-73
2023/07/26 13:13:13;;;;;;;1.30;1.30;;;;;;;;;;4997228;28;20202;-72
2023/07/26 13:15:40;;;;;;;1.20;1.20;;;;;;;;;;5004732;28;20198;-72
2023/07/26 13:18:07;;;;;;;1.02;1.02;;;;;;;;;;5007027;28;20226;-72
2023/07/26 13:20:34;;;;;;;1.35;1.27;;;;;;;;;;5011789;28;20202;-72
2023/07/26 13:23:02;;;;;;;1.45;1.30;;;;;;;;;;4999415;28;20597;-73
2023/07/26 13:25:29;;;;;;;1.40;1.30;;;;;;;;;;4996201;28;20225;-73
2023/07/26 13:27:56;;;;;;;1.63;1.58;;;;;;;;;;4995773;28;20564;-73
2023/07/26 13:30:24;;;;;;;1.63;1.50;;;;;;;;;;4995874;28;20195;-73
2023/07/26 13:32:51;;;;;;;1.60;1.50;;;;;;;;;;4995687;28;20209;-74
2023/07/26 13:35:18;;;;;;;3.13;1.73;;;;;;;;;;4995728;28;20213;-73
2023/07/26 13:37:45;;;;;;;2.97;2.00;;;;;;;;;;4995504;28;20226;-73
2023/07/26 13:40:15;;;;;;;2.05;1.95;;;;;;;;;;4995756;28;20214;-73
2023/07/26 13:42:42;;;;;;;1.95;1.88;;;;;;;;;;4995336;28;20730;-72
2023/07/26 13:45:10;;;;;;;1.80;1.70;;;;;;;;;;4995811;28;20202;-71
2023/07/26 13:47:38;;;;;;;1.67;1.65;;;;;;;;;;4995598;28;20223;-72
2023/07/26 13:50:05;;;;;;;1.60;1.52;;;;;;;;;;4995691;28;20202;-71
2023/07/26 13:52:32;;;;;;;1.55;1.45;;;;;;;;;;4994600;28;20768;-72
2023/07/26 13:54:59;;;;;;;1.67;1.60;;;;;;;;;;4995726;28;20202;-72
2023/07/26 13:57:27;;;;;;;3.05;2.42;;;;;;;;;;4995003;28;20230;-71
2023/07/26 13:59:54;;;;;;;2.00;1.90;;;;;;;;;;4995697;28;20207;-71
2023/07/26 14:02:22;;;;;;;2.75;1.92;;;;;;;;;;4994956;28;20688;-71
2023/07/26 14:04:50;;;;;;;2.08;1.73;;;;;;;;;;4995611;28;20203;-72
2023/07/26 14:07:17;;;;;;;1.92;1.80;;;;;;;;;;4995105;28;20222;-71
2023/07/26 14:09:44;;;;;;;1.83;1.73;;;;;;;;;;4995320;28;20596;-71
2023/07/26 14:12:11;;;;;;;1.63;1.52;;;;;;;;;;4994795;28;20662;-71